Lake Wissota, Wisconsin
Current Conditions -  °F | °C
As of 3:56 PM on Saturday 25 Oct 2014 (Local Time) from KEAU Reporting Station
Clear Clear  
Wind Chill: 62°   Ceiling: Unl
Heat Index: 62°   Visibility: 10mi
Dew Point: 26°   Wind: 18mph
Humidity: 25%   Direction: 270°W
Pressure: 29.97"   Gusts: 25mph
Location:  44.9743°N, 91.4379°W
Report Text: KEAU 252056Z 27016G22KT 10SM CLR 17/M03 A2997 RMK AO2 SLP150 T01671033 55002
Loading
Personal Weather Stations






























Interactive Weather Map
Tropical Storm Tracking
New forecast layout! Learn more

10-Day Weather Forecast

Advertisements
Track Severe Weather on mobile